XML Sitemap

This is a XML Sitemap which is supposed to be processed by search engines which follow the XML Sitemap standard like Ask.com, Bing, Google and Yahoo.
It was generated using the WordPress content management system and the Google Sitemap Generator Plugin by Arne Brachhold.
You can find more information about XML sitemaps on sitemaps.org and Google's list of sitemap programs.

URLPriorityChange frequencyLast modified (GMT)
http://ftalphaville.ft.com/2014/02/28/1786192/gt-pellizzi-financial-times-mary-boone-gallery-ny/20%Monthly2014-02-28 17:46
http://ftalphaville.ft.com/2014/02/28/1785942/how-do-you-stop-a-shrinking-bank/20%Monthly2014-02-28 12:24
http://ftalphaville.ft.com/2014/02/28/1785732/do-we-even-need-a-fed-balance-sheet-reduction/20%Monthly2014-02-28 11:00
http://ftalphaville.ft.com/2014/02/28/1786002/the-early-lunch-wrap-470/20%Monthly2014-02-28 10:54
http://ftalphaville.ft.com/2014/02/28/1785772/yuan-do-we-go-from-here/20%Monthly2014-02-28 09:21
http://ftalphaville.ft.com/2014/02/28/1781812/guest-post-in-defence-of-fx-traders/20%Monthly2014-02-28 09:01
http://ftalphaville.ft.com/2014/02/28/1785672/uk-rates-this-time-will-be-different-for-a-while/20%Monthly2014-02-28 08:51
http://ftalphaville.ft.com/2014/02/28/1784062/part-time-problems/20%Monthly2014-03-11 21:23
http://ftalphaville.ft.com/2014/02/28/1785352/further-reading-1466/20%Monthly2014-02-28 07:45
http://ftalphaville.ft.com/2014/02/28/1785312/the-6am-london-cut-125/20%Monthly2014-02-28 05:40
http://ftalphaville.ft.com/2014/02/27/1785202/the-closer-379/20%Monthly2014-02-27 21:57
http://ftalphaville.ft.com/2014/02/27/1783842/the-bitcoin-personality-cult-lives-on/20%Monthly2014-02-27 16:02
http://ftalphaville.ft.com/2014/02/27/1784662/sticking-a-finger-into-the-ecbs-air/20%Monthly2014-02-27 10:59
http://ftalphaville.ft.com/2014/02/27/1784792/the-early-lunch-wrap-469/20%Monthly2014-02-27 11:00
http://ftalphaville.ft.com/2014/02/27/1784742/oh-look-another-rbs-risk-factor/20%Monthly2014-02-27 10:31
http://ftalphaville.ft.com/2014/02/27/1784572/caption-competition-a-new-direction/20%Monthly2014-02-27 08:59
http://ftalphaville.ft.com/2014/02/27/1784362/further-reading-1465/20%Monthly2014-02-27 08:07
http://ftalphaville.ft.com/2014/02/27/1784382/the-6am-london-cut-124/20%Monthly2014-02-27 05:49
http://ftalphaville.ft.com/2014/02/26/1784292/the-closer-378/20%Monthly2014-02-26 22:51
http://ftalphaville.ft.com/2014/02/26/1784072/wtf-ao-ipo-pdf/20%Monthly2014-02-26 19:18
http://ftalphaville.ft.com/2014/02/26/1783882/fed-chucklehead/20%Monthly2014-02-26 16:48
http://ftalphaville.ft.com/2014/02/26/1783132/the-moderately-bearish-cape-crusade-revisited/20%Monthly2014-02-26 16:14
http://ftalphaville.ft.com/2014/02/26/1783522/ao-here-we-go-either-a-little-too-high-or-a-little-too-low/20%Monthly2014-02-26 16:04
http://ftalphaville.ft.com/2014/02/26/1764542/raghuram-volcker-rajan-good-luck-with-that/20%Monthly2014-02-26 12:50
http://ftalphaville.ft.com/2014/02/26/1783472/the-early-lunch-wrap-468/20%Monthly2014-02-26 10:45
http://ftalphaville.ft.com/2014/02/26/1783432/this-is-nuts-whens-the-crash-13/20%Monthly2014-02-26 10:31
http://ftalphaville.ft.com/2014/02/26/1783232/the-fois-gras-bubble/20%Monthly2014-02-26 10:06
http://ftalphaville.ft.com/2014/02/26/1782672/a-chinese-wall-made-of-battery-packs/20%Monthly2014-02-26 08:53
http://ftalphaville.ft.com/2014/02/26/1782852/oh-yuan-you-temptress/20%Monthly2014-02-26 08:58
http://ftalphaville.ft.com/2014/02/26/1782922/further-reading-1464/20%Monthly2014-02-26 07:59
http://ftalphaville.ft.com/2014/02/26/1782952/the-6am-london-cut-123/20%Monthly2014-02-26 05:45
http://ftalphaville.ft.com/2014/02/25/1782812/the-closer-377/20%Monthly2014-02-25 23:13
http://ftalphaville.ft.com/2014/02/25/1780632/ispit-in-consumers-general-direction/20%Monthly2014-02-25 21:38
http://ftalphaville.ft.com/2014/02/25/1782472/are-we-there-yet-in-the-passenger-cabin-being-driven-autonomously-towards-utopia/20%Monthly2014-02-25 18:58
http://ftalphaville.ft.com/2014/02/25/1781932/tesla-from-zero-to-hero/20%Monthly2014-02-25 16:42
http://ftalphaville.ft.com/2014/02/25/1781352/can-we-finally-lay-to-rest-the-idea-that-zombies-justified-their-existence-in-2008/20%Monthly2014-02-25 16:12
http://ftalphaville.ft.com/2014/02/25/1781892/this-is-nuts-whens-the-crash-12/20%Monthly2014-02-25 15:10
http://ftalphaville.ft.com/2014/02/25/1781282/india-in-thrall-to-not-so-dead-economists-part-two/20%Monthly2014-02-25 12:20
http://ftalphaville.ft.com/2014/02/25/1777872/india-in-thrall-to-not-so-dead-economists/20%Monthly2014-02-25 12:11
http://ftalphaville.ft.com/2014/02/25/1781252/the-curious-incident-of-the-pboc-in-the-usdcny-market/20%Monthly2014-02-25 12:01
http://ftalphaville.ft.com/2014/02/25/1781242/the-early-lunch-wrap-467/20%Monthly2014-02-25 16:26
http://ftalphaville.ft.com/2014/02/25/1781092/as-with-any-new-industry-there-are-certain-bad-actors/20%Monthly2014-02-25 09:25
http://ftalphaville.ft.com/2014/02/25/1780742/ukraines-economy-still-near-the-edge/20%Monthly2014-02-25 06:11
http://ftalphaville.ft.com/2014/02/25/1780792/further-reading-1463/20%Monthly2014-02-25 07:11
http://ftalphaville.ft.com/2014/02/25/1780752/the-6am-london-cut-122/20%Monthly2014-02-25 05:47
http://ftalphaville.ft.com/2014/02/24/1780542/the-closer-376/20%Monthly2014-02-24 21:59
http://ftalphaville.ft.com/2014/02/24/1780332/not-just-herbalife-but-an-entire-industry-selling-to-itself/20%Monthly2014-02-24 12:33
http://ftalphaville.ft.com/2014/02/24/1780262/the-early-lunch-wrap-466/20%Monthly2014-02-24 10:45
http://ftalphaville.ft.com/2014/02/24/1777512/buffett-derivatives-feel-the-credit-quality/20%Monthly2014-02-24 15:19
http://ftalphaville.ft.com/2014/02/24/1779892/kuroda-here-be-expectations/20%Monthly2014-02-24 09:22
http://ftalphaville.ft.com/2014/02/24/1779852/further-reading-1462/20%Monthly2014-02-24 07:21
http://ftalphaville.ft.com/2014/02/24/1779872/the-6am-london-cut-121/20%Monthly2014-02-24 05:42
http://ftalphaville.ft.com/2014/02/21/1779582/fomc-transcripts-bernanke-on-japanese-vs-american-monetary-policy-or-qe-vs-credit-easing/20%Monthly2014-02-21 22:24
http://ftalphaville.ft.com/2014/02/21/1779322/about-all-that-trading-after-the-bell/20%Monthly2014-02-21 18:38
http://ftalphaville.ft.com/2014/02/21/1779232/fed-flying-blind/20%Monthly2014-02-21 22:13
http://ftalphaville.ft.com/2014/02/21/1779212/plosser-didnt-like-the-idea-of-the-fed-issuing-its-own-debt/20%Monthly2014-02-21 21:16
http://ftalphaville.ft.com/2014/02/21/1778832/yellen-in-september-october-2008/20%Monthly2014-02-21 21:16
http://ftalphaville.ft.com/2014/02/21/1778992/and-yes-the-fed-was-really-really-concerned-about-treasury-fails-in-2008/20%Monthly2014-02-21 21:17
http://ftalphaville.ft.com/2014/02/21/1778842/that-would-basically-be-a-repo-agreement-i-guess-bernanke/20%Monthly2014-02-21 21:17
http://ftalphaville.ft.com/2014/02/21/1778782/the-2008-fomc-transcripts/20%Monthly2014-02-21 21:18
http://ftalphaville.ft.com/2014/02/21/1778642/the-early-lunch-wrap-465/20%Monthly2014-02-21 10:50
http://ftalphaville.ft.com/2014/02/21/1778482/this-isnt-nuts-wheres-the-cash/20%Monthly2014-02-21 10:22
http://ftalphaville.ft.com/2014/02/21/1778402/so-long-ukraine-1984838000-5-00-per-cent-notes-due-2015/20%Monthly2014-02-21 11:34
http://ftalphaville.ft.com/2014/02/21/1778352/frequent-batch-auctions-and-the-last-slow-bleeding-second-of-the-day/20%Monthly2014-02-21 09:24
http://ftalphaville.ft.com/2014/02/21/1778262/still-waiting-for-that-china-copper-unwind/20%Monthly2014-02-21 09:25
http://ftalphaville.ft.com/2014/02/21/1778132/further-reading-1461/20%Monthly2014-02-21 07:00
http://ftalphaville.ft.com/2014/02/21/1778142/the-6am-london-cut-120/20%Monthly2014-02-21 05:43
http://ftalphaville.ft.com/2014/02/20/1778062/the-closer-375/20%Monthly2014-02-20 21:32
http://ftalphaville.ft.com/2014/02/20/1777992/this-is-nu-oh-its-spanish-banks-and-tech-well-give-them-this-one/20%Monthly2014-02-20 17:57
http://ftalphaville.ft.com/2014/02/20/1777522/the-data-keiretsu/20%Monthly2014-02-21 10:40
http://ftalphaville.ft.com/2014/02/20/1777562/herbalife-is-not-going-to-answer-your-questions-senator-but-be-assured-it-is-a-good-corporate-citizen/20%Monthly2014-02-20 12:20
http://ftalphaville.ft.com/2014/02/20/1777502/god-complex-alert/20%Monthly2014-02-20 10:50
http://ftalphaville.ft.com/2014/02/20/1777592/the-early-lunch-wrap-464/20%Monthly2014-02-20 10:48
http://ftalphaville.ft.com/2014/02/20/1777352/further-reading-1460/20%Monthly2014-02-20 07:12
http://ftalphaville.ft.com/2014/02/20/1777372/the-6am-london-cut-119/20%Monthly2014-02-20 05:42
http://ftalphaville.ft.com/2014/02/19/1777182/the-closer-374/20%Monthly2014-02-19 23:31
http://ftalphaville.ft.com/2014/02/19/1777102/this-is-nuts-whens-the-crash-11/20%Monthly2014-02-20 00:42
http://ftalphaville.ft.com/2014/02/19/1777042/fomc-minutes-to-january-little-guidance-on-the-eventual-new-guidance/20%Monthly2014-02-19 22:07
http://ftalphaville.ft.com/2014/02/19/1776962/how-to-understand-labour-force-participation-better-eventually/20%Monthly2014-03-11 21:24
http://ftalphaville.ft.com/2014/02/19/1776612/ukraine-1984838000-5-00-per-cent-notes-due-2015-and-the-burning-tyres-therein/20%Monthly2014-02-19 17:58
http://ftalphaville.ft.com/2014/02/19/1776782/an-announcement-from-blurred-group/20%Monthly2014-02-19 17:09
http://ftalphaville.ft.com/2014/02/19/1776482/kkr-my-best-friend-cayman-topco-limited/20%Monthly2016-11-24 15:22
http://ftalphaville.ft.com/2014/02/19/1776182/affordability-backwards/20%Monthly2014-02-19 11:43
http://ftalphaville.ft.com/2014/02/19/1776342/the-early-lunch-wrap-463/20%Monthly2014-02-19 10:32
http://ftalphaville.ft.com/2014/02/19/1776292/uk-drunkenness-tabulated/20%Monthly2014-02-19 10:13
http://ftalphaville.ft.com/2014/02/19/1775992/the-practicalities-of-eu-qe/20%Monthly2014-02-19 09:26
http://ftalphaville.ft.com/2014/02/19/1775642/more-on-abenomics-and-the-wage-employment-tradeoff/20%Monthly2014-02-19 15:56
http://ftalphaville.ft.com/2014/02/19/1775872/further-reading-1459/20%Monthly2014-02-19 09:47
http://ftalphaville.ft.com/2014/02/19/1775852/the-6am-london-cut-118/20%Monthly2014-02-19 05:41
http://ftalphaville.ft.com/2014/02/18/1775432/the-closer-373/20%Monthly2014-02-18 19:23
http://ftalphaville.ft.com/2014/02/18/1775572/an-em-credit-crunch-not-a-sudden-stop/20%Monthly2014-02-18 19:33
http://ftalphaville.ft.com/2014/02/18/1775442/tic-tock-for-chinas-usts/20%Monthly2014-02-18 19:33
http://ftalphaville.ft.com/2014/02/18/1775252/i-love-the-smell-of-carry-trade-in-the-morning/20%Monthly2015-01-08 11:22
http://ftalphaville.ft.com/2014/02/18/1775262/the-early-lunch-wrap-462/20%Monthly2014-02-18 10:56
http://ftalphaville.ft.com/2014/02/18/1775172/time-to-stop-obsessing-about-central-banks/20%Monthly2014-02-18 10:02
http://ftalphaville.ft.com/2014/02/18/1774262/which-macroeconomists-missed-the-global-financial-collapse-and-when-did-they-miss-it/20%Monthly2014-02-18 09:44
http://ftalphaville.ft.com/2014/02/18/1775012/the-frrp-is-not-enough/20%Monthly2014-02-18 09:14
http://ftalphaville.ft.com/2014/02/18/1774812/further-reading-1458/20%Monthly2014-02-18 07:50
http://ftalphaville.ft.com/2014/02/18/1774822/the-6am-london-cut-117/20%Monthly2014-02-18 06:14
http://ftalphaville.ft.com/2014/02/17/1774432/go-forth-and-multiply-london-edition/20%Monthly2014-02-17 16:54
http://ftalphaville.ft.com/2014/02/17/1774172/guest-post-back-to-the-future-with-scottish-currency/20%Monthly2014-02-17 13:41
http://ftalphaville.ft.com/2014/02/17/1773822/dont-blame-squids-blame-china/20%Monthly2014-02-17 11:33
http://ftalphaville.ft.com/2014/02/17/1774022/the-early-lunch-wrap-461/20%Monthly2014-02-17 10:55
http://ftalphaville.ft.com/2014/02/17/1773692/the-corporate-pension-problem-evaporates/20%Monthly2014-02-17 10:02
http://ftalphaville.ft.com/2014/02/17/1773632/chinese-credit-semantics/20%Monthly2014-02-17 09:43
http://ftalphaville.ft.com/2014/02/17/1773592/further-reading-1457/20%Monthly2014-02-17 07:56
http://ftalphaville.ft.com/2014/02/17/1773482/the-6am-london-cut-116/20%Monthly2014-02-17 05:47
http://ftalphaville.ft.com/2014/02/14/1773012/i-claudius-caller-of-bank-bonds/20%Monthly2014-02-14 21:55
http://ftalphaville.ft.com/2014/02/14/1772852/the-e1000000000000-question/20%Monthly2014-02-14 16:32
http://ftalphaville.ft.com/2014/02/14/1771312/the-fed-reverse-repos-and-tri-partybilateral-repo-market-wedges/20%Monthly2014-02-14 16:01
http://ftalphaville.ft.com/2014/02/14/1772682/qe-in-the-popular-lexicon/20%Monthly2014-02-14 15:00
http://ftalphaville.ft.com/2014/02/14/1772272/the-promoter-problem-in-indian-banks/20%Monthly2014-02-14 11:00
http://ftalphaville.ft.com/2014/02/14/1772352/the-early-lunch-wrap-460/20%Monthly2014-02-14 10:45
http://ftalphaville.ft.com/2014/02/14/1771522/information-asymmetry-bad-incentives-and-taibbi/20%Monthly2014-02-14 10:25
http://ftalphaville.ft.com/2014/02/14/1770832/how-scotland-really-lost-sterling-union/20%Monthly2014-02-14 10:23
http://ftalphaville.ft.com/2014/02/14/1772082/further-reading-1456/20%Monthly2014-02-14 08:37
http://ftalphaville.ft.com/2014/02/14/1772072/the-6am-london-cut-115/20%Monthly2014-02-14 05:45
http://ftalphaville.ft.com/2014/02/13/1772042/the-closer-355/20%Monthly2014-02-13 23:05
http://ftalphaville.ft.com/2014/02/13/1771282/robots-wont-make-you-rich/20%Monthly2014-02-13 16:29
http://ftalphaville.ft.com/2014/02/13/1771052/crowdsurfing-the-finnovation-wave/20%Monthly2014-02-13 13:45
http://ftalphaville.ft.com/2014/02/13/1770842/from-inventory-denial-to-inventory-acceptance-in-aluminium/20%Monthly2014-02-13 10:50
http://ftalphaville.ft.com/2014/02/13/1770882/the-early-lunch-wrap-459/20%Monthly2014-02-13 10:52
http://ftalphaville.ft.com/2014/02/13/1770402/the-real-reason-the-chinese-are-mad-for-gold/20%Monthly2014-02-13 08:17
http://ftalphaville.ft.com/2014/02/13/1770692/further-reading-1455/20%Monthly2014-02-13 08:22
http://ftalphaville.ft.com/2014/02/13/1770632/the-6am-london-cut-114/20%Monthly2014-02-13 05:41
http://ftalphaville.ft.com/2014/02/12/1770592/the-closer-372/20%Monthly2014-02-12 22:29
http://ftalphaville.ft.com/2014/02/12/1770472/rbs-quotes-du-jour/20%Monthly2014-02-12 17:27
http://ftalphaville.ft.com/2014/02/12/1770302/behold-the-new-new-economy/20%Monthly2014-02-12 15:23
http://ftalphaville.ft.com/2014/02/12/1770232/ratings-bias-slap-back-smackdown-watch/20%Monthly2014-02-12 22:05
http://ftalphaville.ft.com/2014/02/12/1769972/the-early-lunch-wrap-458/20%Monthly2014-02-12 10:49
http://ftalphaville.ft.com/2014/02/12/1769822/inflation-reported/20%Monthly2014-02-12 10:48
http://ftalphaville.ft.com/2014/02/12/1769752/a-bs-solution/20%Monthly2014-02-12 10:01
http://ftalphaville.ft.com/2014/02/12/1769382/will-janet-yellen-be-a-high-pressure-fed-chair/20%Monthly2014-03-11 21:24
http://ftalphaville.ft.com/2014/02/12/1769462/further-reading-1454/20%Monthly2014-02-12 10:05
http://ftalphaville.ft.com/2014/02/12/1769422/the-6am-london-cut-113/20%Monthly2014-02-12 05:56
http://ftalphaville.ft.com/2014/02/11/1769342/the-closer-371/20%Monthly2014-02-11 22:57
http://ftalphaville.ft.com/2014/02/11/1768992/the-uks-squeezed-bottom-charted/20%Monthly2014-02-11 17:43
http://ftalphaville.ft.com/2014/02/11/1769142/yellens-pre-testimony/20%Monthly2014-02-11 13:41
http://ftalphaville.ft.com/2014/02/11/1768982/this-is-nuts-whens-the-%e5%8d%b1%e6%9c%ba/20%Monthly2014-02-11 12:54
http://ftalphaville.ft.com/2014/02/11/1760382/what-is-carlos-ghosn-waiting-for/20%Monthly2014-02-11 11:29
http://ftalphaville.ft.com/2014/02/11/1768842/the-early-lunch-wrap-457/20%Monthly2014-02-11 10:49
http://ftalphaville.ft.com/2014/02/11/1768462/us-macro-live-janet-yellen-testimony-edition/20%Monthly2014-02-11 09:17
http://ftalphaville.ft.com/2014/02/11/1768672/untengeable/20%Monthly2014-02-11 09:01
http://ftalphaville.ft.com/2014/02/11/1768132/further-reading-1453/20%Monthly2014-02-11 09:08
http://ftalphaville.ft.com/2014/02/11/1767732/the-debt-ceiling-yes-again/20%Monthly2014-02-11 06:07
http://ftalphaville.ft.com/2014/02/11/1768152/the-6am-london-cut-112/20%Monthly2014-02-11 05:48
http://ftalphaville.ft.com/2014/02/10/1768032/the-closer-370/20%Monthly2014-02-10 23:03
http://ftalphaville.ft.com/2014/02/10/1767912/the-economic-fallout-of-switzerlands-immigration-vote/20%Monthly2014-02-10 21:17
http://ftalphaville.ft.com/2014/02/10/1767832/the-worlds-most-successful-hedge-fund-is-not-a-hedge-fund/20%Monthly2014-02-10 17:18
http://ftalphaville.ft.com/2014/02/10/1767532/europes-anemic-earnings-story/20%Monthly2014-02-10 15:26
http://ftalphaville.ft.com/2014/02/10/1767172/pavlovs-eurozone/20%Monthly2014-02-10 12:10
http://ftalphaville.ft.com/2014/02/10/1753272/the-multi-level-endgame-part-one-the-ftc/20%Monthly2014-02-10 11:28
http://ftalphaville.ft.com/2014/02/10/1767242/the-early-lunch-wrap-456/20%Monthly2014-02-10 10:50
http://ftalphaville.ft.com/2014/02/10/1767142/barc-pre-announced/20%Monthly2014-02-10 12:09
http://ftalphaville.ft.com/2014/02/10/1767052/this-is-nuts-whens-the-crash-10/20%Monthly2014-02-10 09:17
http://ftalphaville.ft.com/2014/02/10/1766882/further-reading-1452/20%Monthly2014-02-10 06:56
http://ftalphaville.ft.com/2014/02/10/1766902/the-6am-london-cut-111/20%Monthly2014-02-10 05:51
http://ftalphaville.ft.com/2014/02/07/1763322/the-gamification-of-the-economy-creating-rivalry-where-there-is-none/20%Monthly2014-02-07 16:50
http://ftalphaville.ft.com/2014/02/07/1766372/january-payrolls-113k-jobless-rate-6-6/20%Monthly2014-02-10 16:23
http://ftalphaville.ft.com/2014/02/07/1766252/russia-must-use-olympics-to-shrug-off-contagion-talk/20%Monthly2014-02-10 16:12
http://ftalphaville.ft.com/2014/02/07/1766042/the-omt-um-what-does-this-thing-do-again-a-bundesverfassungsgericht-guide/20%Monthly2014-02-07 11:29
http://ftalphaville.ft.com/2014/02/07/1766062/the-early-lunch-wrap-455/20%Monthly2014-02-07 10:45
http://ftalphaville.ft.com/2014/02/07/1765952/hot-potato-passed-bailout-legality-edition/20%Monthly2014-02-07 09:08
http://ftalphaville.ft.com/2014/02/07/1765922/friday-banks-chart-sweden-is-the-next-australia/20%Monthly2014-02-07 08:42
http://ftalphaville.ft.com/2014/02/07/1765522/further-reading-1451/20%Monthly2014-02-07 07:34
http://ftalphaville.ft.com/2014/02/07/1763792/a-lesson-from-japans-falling-real-wages/20%Monthly2014-02-07 07:10
http://ftalphaville.ft.com/2014/02/07/1765502/the-6am-london-cut-90/20%Monthly2014-02-07 05:50
http://ftalphaville.ft.com/2014/02/06/1765402/the-closer-369/20%Monthly2014-02-06 23:23
http://ftalphaville.ft.com/2014/02/06/1764232/weather-its-worth-worrying-about-who-knows/20%Monthly2014-02-07 05:52
http://ftalphaville.ft.com/2014/02/06/1764802/the-early-lunch-wrap-454/20%Monthly2014-02-06 10:49
http://ftalphaville.ft.com/2014/02/06/1764582/quantified-negativity-and-the-ecb/20%Monthly2014-02-06 10:35
http://ftalphaville.ft.com/2014/02/06/1764552/man-without-webvan/20%Monthly2014-02-06 10:04
http://ftalphaville.ft.com/2014/02/06/1764432/just-one-of-your-old-time-corrections/20%Monthly2014-02-06 08:46
http://ftalphaville.ft.com/2014/02/06/1764122/further-reading-1450/20%Monthly2014-02-06 07:48
http://ftalphaville.ft.com/2014/02/06/1764062/the-6am-london-cut-110/20%Monthly2014-02-06 05:51
http://ftalphaville.ft.com/2014/02/05/1764012/the-closer-368/20%Monthly2014-02-05 23:04
http://ftalphaville.ft.com/2014/02/05/1763912/twitter-earnings-report-beats-analyst-expectations-disappoints-normal-people-expectations/20%Monthly2014-02-05 22:16
http://ftalphaville.ft.com/2014/02/05/1763552/a-puerto-rico-downgrade-cheat-sheet/20%Monthly2014-02-05 19:55
http://ftalphaville.ft.com/2014/02/05/1762922/the-buffett-derivative-mystery-gets-more-exotic/20%Monthly2014-02-05 13:00
http://ftalphaville.ft.com/2014/02/05/1762952/this-is-nuts-whens-the-crash-9/20%Monthly2014-02-05 12:33
http://ftalphaville.ft.com/2014/02/05/1763192/hryvnia-we-hardly-knew-ye/20%Monthly2014-02-05 12:17
http://ftalphaville.ft.com/2014/02/05/1762932/deflation-now-vs-then/20%Monthly2014-02-05 10:55
http://ftalphaville.ft.com/2014/02/05/1762992/the-early-lunch-wrap-453/20%Monthly2014-02-05 10:45
http://ftalphaville.ft.com/2014/02/05/1762752/further-reading-1449/20%Monthly2014-02-05 08:02
http://ftalphaville.ft.com/2014/02/05/1762712/the-6am-london-cut-109/20%Monthly2014-02-05 05:59
http://ftalphaville.ft.com/2014/02/04/1762662/the-closer-367/20%Monthly2014-02-04 22:37
http://ftalphaville.ft.com/2014/02/04/1762422/working-for-the-coverage/20%Monthly2014-02-04 20:35
http://ftalphaville.ft.com/2014/02/04/1758372/participation-rate-hysteresis-labour-market-slack-and-why-it-doesnt-have-to-matter/20%Monthly2014-03-11 21:25
http://ftalphaville.ft.com/2014/02/04/1761692/not-all-forms-of-wealth-are-equally-pernicious/20%Monthly2014-02-04 16:33
http://ftalphaville.ft.com/2014/02/04/1761792/home-bias-not-us-says-sp/20%Monthly2014-02-04 16:03
http://ftalphaville.ft.com/2014/02/04/1761492/its-the-hot-money-stupid/20%Monthly2014-02-04 13:08
http://ftalphaville.ft.com/2014/02/04/1761432/can-we-have-our-bags-back/20%Monthly2014-02-04 11:15
http://ftalphaville.ft.com/2014/02/04/1761452/the-early-lunch-wrap-452/20%Monthly2014-02-04 10:50
http://ftalphaville.ft.com/2014/02/04/1761342/momentum-shifted-japan-watch/20%Monthly2014-02-04 08:59
http://ftalphaville.ft.com/2014/02/04/1761122/why-the-eurozone-output-gap-could-be-a-chasm/20%Monthly2014-02-04 08:31
http://ftalphaville.ft.com/2014/02/04/1761102/further-reading-1448/20%Monthly2014-02-04 08:10
http://ftalphaville.ft.com/2014/02/04/1760962/the-6am-london-cut-108/20%Monthly2014-02-04 05:47
http://ftalphaville.ft.com/2014/02/03/1760802/the-closer-366/20%Monthly2014-02-03 23:08
http://ftalphaville.ft.com/2014/02/03/1760522/no-bad-apples-on-the-herbalife-tree/20%Monthly2014-02-03 17:44
http://ftalphaville.ft.com/2014/02/03/1760402/a-gentle-tug-on-the-purse-strings/20%Monthly2014-02-03 15:07
http://ftalphaville.ft.com/2014/02/03/1759582/piketty-and-the-case-for-land-capital/20%Monthly2014-02-03 15:27
http://ftalphaville.ft.com/2014/02/03/1760202/to-be-or-not-to-be-sterilised-in-the-eurozone/20%Monthly2014-02-03 12:44
http://ftalphaville.ft.com/2014/02/03/1760132/the-early-lunch-wrap-451/20%Monthly2014-02-03 10:49
http://ftalphaville.ft.com/2014/02/03/1759962/in-defence-of-chinas-shadow-banks/20%Monthly2014-02-03 10:39
http://ftalphaville.ft.com/2014/02/03/1759982/post-panic-paranoia-plotted/20%Monthly2014-02-03 09:31
http://ftalphaville.ft.com/2014/02/03/1759802/further-reading-1447/20%Monthly2014-02-03 07:25
http://ftalphaville.ft.com/2014/02/03/1759732/the-6am-london-cut-107/20%Monthly2014-02-03 05:47